sensor_id;sensor_type;location;lat;lon;timestamp;P1;durP1;ratioP1;P2;durP2;ratioP2
11827;SDS011;5971;49.646;8.568;2023-04-25T00:02:02;4.93;;;3.20;;
11827;SDS011;5971;49.646;8.568;2023-04-25T00:05:04;3.95;;;2.47;;
11827;SDS011;5971;49.646;8.568;2023-04-25T00:08:06;5.03;;;2.60;;
11827;SDS011;5971;49.646;8.568;2023-04-25T00:11:08;4.72;;;2.92;;
11827;SDS011;5971;49.646;8.568;2023-04-25T00:14:09;5.57;;;2.97;;
11827;SDS011;5971;49.646;8.568;2023-04-25T00:17:11;4.25;;;2.53;;
11827;SDS011;5971;49.646;8.568;2023-04-25T00:20:12;5.00;;;3.25;;
11827;SDS011;5971;49.646;8.568;2023-04-25T00:23:14;4.65;;;3.20;;
11827;SDS011;5971;49.646;8.568;2023-04-25T00:26:18;6.05;;;3.53;;
11827;SDS011;5971;49.646;8.568;2023-04-25T00:29:20;5.20;;;2.90;;
11827;SDS011;5971;49.646;8.568;2023-04-25T00:32:21;6.10;;;2.85;;
11827;SDS011;5971;49.646;8.568;2023-04-25T00:35:22;4.90;;;3.50;;
11827;SDS011;5971;49.646;8.568;2023-04-25T00:38:24;5.90;;;3.22;;
11827;SDS011;5971;49.646;8.568;2023-04-25T00:41:25;4.70;;;2.92;;
11827;SDS011;5971;49.646;8.568;2023-04-25T00:44:27;5.07;;;3.78;;
11827;SDS011;5971;49.646;8.568;2023-04-25T00:47:30;6.88;;;3.25;;
11827;SDS011;5971;49.646;8.568;2023-04-25T00:50:35;5.85;;;2.72;;
11827;SDS011;5971;49.646;8.568;2023-04-25T00:53:37;6.10;;;3.13;;
11827;SDS011;5971;49.646;8.568;2023-04-25T00:56:39;6.35;;;2.90;;
11827;SDS011;5971;49.646;8.568;2023-04-25T00:59:40;6.72;;;3.47;;
11827;SDS011;5971;49.646;8.568;2023-04-25T01:02:44;8.75;;;4.03;;
11827;SDS011;5971;49.646;8.568;2023-04-25T01:05:46;6.60;;;3.67;;
11827;SDS011;5971;49.646;8.568;2023-04-25T01:08:50;6.13;;;3.20;;
11827;SDS011;5971;49.646;8.568;2023-04-25T01:11:52;7.00;;;3.17;;
11827;SDS011;5971;49.646;8.568;2023-04-25T01:14:53;6.88;;;3.35;;
11827;SDS011;5971;49.646;8.568;2023-04-25T01:17:54;6.00;;;3.60;;
11827;SDS011;5971;49.646;8.568;2023-04-25T01:20:56;7.97;;;3.13;;
11827;SDS011;5971;49.646;8.568;2023-04-25T01:23:59;5.50;;;2.67;;
11827;SDS011;5971;49.646;8.568;2023-04-25T01:27:00;5.03;;;2.70;;
11827;SDS011;5971;49.646;8.568;2023-04-25T01:30:03;8.40;;;3.65;;
11827;SDS011;5971;49.646;8.568;2023-04-25T01:33:05;7.13;;;3.42;;
11827;SDS011;5971;49.646;8.568;2023-04-25T01:36:07;5.10;;;2.72;;
11827;SDS011;5971;49.646;8.568;2023-04-25T01:39:09;5.13;;;2.97;;
11827;SDS011;5971;49.646;8.568;2023-04-25T01:42:10;7.22;;;3.13;;
11827;SDS011;5971;49.646;8.568;2023-04-25T01:45:11;6.20;;;3.90;;
11827;SDS011;5971;49.646;8.568;2023-04-25T01:48:13;7.93;;;4.07;;
11827;SDS011;5971;49.646;8.568;2023-04-25T01:51:15;5.68;;;3.03;;
11827;SDS011;5971;49.646;8.568;2023-04-25T01:54:16;7.22;;;3.20;;
11827;SDS011;5971;49.646;8.568;2023-04-25T01:57:18;5.28;;;3.28;;
11827;SDS011;5971;49.646;8.568;2023-04-25T02:00:19;6.68;;;3.40;;
11827;SDS011;5971;49.646;8.568;2023-04-25T02:03:20;6.30;;;3.33;;
11827;SDS011;5971;49.646;8.568;2023-04-25T02:06:22;6.07;;;4.05;;
11827;SDS011;5971;49.646;8.568;2023-04-25T02:09:23;7.05;;;3.58;;
11827;SDS011;5971;49.646;8.568;2023-04-25T02:12:25;6.32;;;3.10;;
11827;SDS011;5971;49.646;8.568;2023-04-25T02:15:27;7.10;;;3.47;;
11827;SDS011;5971;49.646;8.568;2023-04-25T02:18:28;7.88;;;4.70;;
11827;SDS011;5971;49.646;8.568;2023-04-25T02:21:30;6.93;;;3.90;;
11827;SDS011;5971;49.646;8.568;2023-04-25T02:24:31;8.27;;;4.40;;
11827;SDS011;5971;49.646;8.568;2023-04-25T02:27:34;6.43;;;3.42;;
11827;SDS011;5971;49.646;8.568;2023-04-25T02:30:36;10.05;;;3.53;;
11827;SDS011;5971;49.646;8.568;2023-04-25T02:33:37;6.25;;;3.88;;
11827;SDS011;5971;49.646;8.568;2023-04-25T02:36:38;6.57;;;3.33;;
11827;SDS011;5971;49.646;8.568;2023-04-25T02:39:40;6.50;;;3.50;;
11827;SDS011;5971;49.646;8.568;2023-04-25T02:42:41;6.13;;;4.45;;
11827;SDS011;5971;49.646;8.568;2023-04-25T02:45:42;6.05;;;3.53;;
11827;SDS011;5971;49.646;8.568;2023-04-25T02:48:43;6.63;;;3.53;;
11827;SDS011;5971;49.646;8.568;2023-04-25T02:51:45;7.28;;;4.30;;
11827;SDS011;5971;49.646;8.568;2023-04-25T02:54:46;6.10;;;3.33;;
11827;SDS011;5971;49.646;8.568;2023-04-25T02:57:47;7.10;;;4.55;;
11827;SDS011;5971;49.646;8.568;2023-04-25T03:00:49;6.18;;;3.65;;
11827;SDS011;5971;49.646;8.568;2023-04-25T03:03:50;7.10;;;5.07;;
11827;SDS011;5971;49.646;8.568;2023-04-25T03:06:52;7.70;;;4.55;;
11827;SDS011;5971;49.646;8.568;2023-04-25T03:09:54;4.63;;;3.22;;
11827;SDS011;5971;49.646;8.568;2023-04-25T03:12:56;8.68;;;4.32;;
11827;SDS011;5971;49.646;8.568;2023-04-25T03:15:57;8.63;;;3.55;;
11827;SDS011;5971;49.646;8.568;2023-04-25T03:18:59;9.20;;;5.20;;
11827;SDS011;5971;49.646;8.568;2023-04-25T03:22:00;7.65;;;3.20;;
11827;SDS011;5971;49.646;8.568;2023-04-25T03:25:02;6.60;;;4.20;;
11827;SDS011;5971;49.646;8.568;2023-04-25T03:28:03;10.52;;;4.45;;
11827;SDS011;5971;49.646;8.568;2023-04-25T03:31:05;6.63;;;3.58;;
11827;SDS011;5971;49.646;8.568;2023-04-25T03:34:06;6.95;;;4.43;;
11827;SDS011;5971;49.646;8.568;2023-04-25T03:37:07;8.50;;;5.22;;
11827;SDS011;5971;49.646;8.568;2023-04-25T03:40:09;7.65;;;4.00;;
11827;SDS011;5971;49.646;8.568;2023-04-25T03:43:10;7.63;;;4.38;;
11827;SDS011;5971;49.646;8.568;2023-04-25T03:46:12;11.75;;;5.32;;
11827;SDS011;5971;49.646;8.568;2023-04-25T03:49:13;8.00;;;5.03;;
11827;SDS011;5971;49.646;8.568;2023-04-25T03:52:18;7.88;;;4.00;;
11827;SDS011;5971;49.646;8.568;2023-04-25T03:55:20;8.57;;;5.50;;
11827;SDS011;5971;49.646;8.568;2023-04-25T03:58:21;6.57;;;3.55;;
11827;SDS011;5971;49.646;8.568;2023-04-25T04:01:24;8.13;;;5.45;;
11827;SDS011;5971;49.646;8.568;2023-04-25T04:04:26;6.60;;;3.90;;
11827;SDS011;5971;49.646;8.568;2023-04-25T04:07:27;8.30;;;4.40;;
11827;SDS011;5971;49.646;8.568;2023-04-25T04:10:29;8.88;;;4.72;;
11827;SDS011;5971;49.646;8.568;2023-04-25T04:13:30;8.45;;;4.13;;
11827;SDS011;5971;49.646;8.568;2023-04-25T04:16:32;9.90;;;5.10;;
11827;SDS011;5971;49.646;8.568;2023-04-25T04:19:34;9.85;;;4.93;;
11827;SDS011;5971;49.646;8.568;2023-04-25T04:22:36;9.48;;;4.88;;
11827;SDS011;5971;49.646;8.568;2023-04-25T04:25:37;9.02;;;4.93;;
11827;SDS011;5971;49.646;8.568;2023-04-25T04:28:39;8.18;;;4.25;;
11827;SDS011;5971;49.646;8.568;2023-04-25T04:31:40;10.18;;;6.13;;
11827;SDS011;5971;49.646;8.568;2023-04-25T04:34:41;12.27;;;4.82;;
11827;SDS011;5971;49.646;8.568;2023-04-25T04:37:43;9.63;;;4.20;;
11827;SDS011;5971;49.646;8.568;2023-04-25T04:40:46;8.30;;;4.40;;
11827;SDS011;5971;49.646;8.568;2023-04-25T04:43:48;9.75;;;5.35;;
11827;SDS011;5971;49.646;8.568;2023-04-25T04:46:50;10.60;;;5.38;;
11827;SDS011;5971;49.646;8.568;2023-04-25T04:49:52;9.57;;;5.03;;
11827;SDS011;5971;49.646;8.568;2023-04-25T04:52:53;9.30;;;4.43;;
11827;SDS011;5971;49.646;8.568;2023-04-25T04:55:56;10.35;;;5.28;;
11827;SDS011;5971;49.646;8.568;2023-04-25T04:58:57;14.07;;;6.38;;
11827;SDS011;5971;49.646;8.568;2023-04-25T05:01:59;10.30;;;5.97;;
11827;SDS011;5971;49.646;8.568;2023-04-25T05:05:00;10.90;;;5.32;;
11827;SDS011;5971;49.646;8.568;2023-04-25T05:08:01;10.23;;;5.22;;
11827;SDS011;5971;49.646;8.568;2023-04-25T05:11:03;12.02;;;5.68;;
11827;SDS011;5971;49.646;8.568;2023-04-25T05:14:04;10.40;;;5.82;;
11827;SDS011;5971;49.646;8.568;2023-04-25T05:17:06;13.50;;;6.70;;
11827;SDS011;5971;49.646;8.568;2023-04-25T05:20:09;10.40;;;5.55;;
11827;SDS011;5971;49.646;8.568;2023-04-25T05:23:11;10.55;;;4.82;;
11827;SDS011;5971;49.646;8.568;2023-04-25T05:26:12;11.45;;;6.25;;
11827;SDS011;5971;49.646;8.568;2023-04-25T05:29:15;9.57;;;4.70;;
11827;SDS011;5971;49.646;8.568;2023-04-25T05:32:16;11.15;;;5.40;;
11827;SDS011;5971;49.646;8.568;2023-04-25T05:35:17;8.23;;;4.35;;
11827;SDS011;5971;49.646;8.568;2023-04-25T05:38:19;9.55;;;4.72;;
11827;SDS011;5971;49.646;8.568;2023-04-25T05:41:20;9.25;;;4.03;;
11827;SDS011;5971;49.646;8.568;2023-04-25T05:44:21;10.15;;;4.90;;
11827;SDS011;5971;49.646;8.568;2023-04-25T05:47:23;6.88;;;3.40;;
11827;SDS011;5971;49.646;8.568;2023-04-25T05:50:24;7.93;;;4.43;;
11827;SDS011;5971;49.646;8.568;2023-04-25T05:53:26;7.32;;;3.53;;
11827;SDS011;5971;49.646;8.568;2023-04-25T05:56:27;10.25;;;4.28;;
11827;SDS011;5971;49.646;8.568;2023-04-25T05:59:28;6.95;;;3.92;;
11827;SDS011;5971;49.646;8.568;2023-04-25T06:02:30;7.55;;;3.63;;
11827;SDS011;5971;49.646;8.568;2023-04-25T06:05:31;8.35;;;4.80;;
11827;SDS011;5971;49.646;8.568;2023-04-25T06:08:33;9.55;;;4.55;;
11827;SDS011;5971;49.646;8.568;2023-04-25T06:11:34;10.82;;;4.28;;
11827;SDS011;5971;49.646;8.568;2023-04-25T06:14:36;7.78;;;3.92;;
11827;SDS011;5971;49.646;8.568;2023-04-25T06:17:37;8.23;;;4.38;;
11827;SDS011;5971;49.646;8.568;2023-04-25T06:20:38;9.00;;;3.40;;
11827;SDS011;5971;49.646;8.568;2023-04-25T06:23:40;7.95;;;3.78;;
11827;SDS011;5971;49.646;8.568;2023-04-25T06:26:41;8.38;;;3.83;;
11827;SDS011;5971;49.646;8.568;2023-04-25T06:29:42;7.03;;;3.88;;
11827;SDS011;5971;49.646;8.568;2023-04-25T06:32:44;9.40;;;3.55;;
11827;SDS011;5971;49.646;8.568;2023-04-25T06:35:45;8.40;;;3.80;;
11827;SDS011;5971;49.646;8.568;2023-04-25T06:38:46;9.32;;;4.15;;
11827;SDS011;5971;49.646;8.568;2023-04-25T06:41:48;10.27;;;3.88;;
11827;SDS011;5971;49.646;8.568;2023-04-25T06:44:49;8.38;;;3.30;;
11827;SDS011;5971;49.646;8.568;2023-04-25T06:47:51;8.45;;;3.45;;
11827;SDS011;5971;49.646;8.568;2023-04-25T06:50:52;8.27;;;4.53;;
11827;SDS011;5971;49.646;8.568;2023-04-25T06:53:53;10.45;;;3.35;;
11827;SDS011;5971;49.646;8.568;2023-04-25T06:56:55;8.52;;;3.30;;
11827;SDS011;5971;49.646;8.568;2023-04-25T06:59:56;9.82;;;3.53;;
11827;SDS011;5971;49.646;8.568;2023-04-25T07:02:59;8.52;;;3.42;;
11827;SDS011;5971;49.646;8.568;2023-04-25T07:06:01;7.25;;;2.88;;
11827;SDS011;5971;49.646;8.568;2023-04-25T07:09:02;6.80;;;3.42;;
11827;SDS011;5971;49.646;8.568;2023-04-25T07:12:04;4.40;;;2.63;;
11827;SDS011;5971;49.646;8.568;2023-04-25T07:15:05;6.28;;;3.00;;
11827;SDS011;5971;49.646;8.568;2023-04-25T07:18:09;6.97;;;2.92;;
11827;SDS011;5971;49.646;8.568;2023-04-25T07:21:10;5.32;;;2.65;;
11827;SDS011;5971;49.646;8.568;2023-04-25T07:24:11;6.45;;;2.78;;
11827;SDS011;5971;49.646;8.568;2023-04-25T07:27:13;8.27;;;3.45;;
11827;SDS011;5971;49.646;8.568;2023-04-25T07:30:14;4.88;;;2.53;;
11827;SDS011;5971;49.646;8.568;2023-04-25T07:33:15;8.40;;;3.72;;
11827;SDS011;5971;49.646;8.568;2023-04-25T07:36:17;9.32;;;2.97;;
11827;SDS011;5971;49.646;8.568;2023-04-25T07:39:18;8.38;;;3.33;;
11827;SDS011;5971;49.646;8.568;2023-04-25T07:42:19;7.22;;;3.83;;
11827;SDS011;5971;49.646;8.568;2023-04-25T07:45:22;6.65;;;3.70;;
11827;SDS011;5971;49.646;8.568;2023-04-25T07:48:23;8.30;;;3.00;;
11827;SDS011;5971;49.646;8.568;2023-04-25T07:51:24;4.68;;;2.30;;
11827;SDS011;5971;49.646;8.568;2023-04-25T07:54:26;5.18;;;2.45;;
11827;SDS011;5971;49.646;8.568;2023-04-25T07:57:28;5.43;;;2.75;;
11827;SDS011;5971;49.646;8.568;2023-04-25T08:00:30;8.20;;;2.67;;
11827;SDS011;5971;49.646;8.568;2023-04-25T08:03:31;4.22;;;2.30;;
11827;SDS011;5971;49.646;8.568;2023-04-25T08:06:33;4.78;;;2.50;;
11827;SDS011;5971;49.646;8.568;2023-04-25T08:09:35;5.32;;;2.25;;
11827;SDS011;5971;49.646;8.568;2023-04-25T08:12:37;7.30;;;2.25;;
11827;SDS011;5971;49.646;8.568;2023-04-25T08:15:39;7.53;;;2.30;;
11827;SDS011;5971;49.646;8.568;2023-04-25T08:18:40;6.13;;;2.17;;
11827;SDS011;5971;49.646;8.568;2023-04-25T08:21:41;8.40;;;2.83;;
11827;SDS011;5971;49.646;8.568;2023-04-25T08:24:43;5.32;;;2.40;;
11827;SDS011;5971;49.646;8.568;2023-04-25T08:27:44;5.13;;;3.30;;
11827;SDS011;5971;49.646;8.568;2023-04-25T08:30:45;6.00;;;4.18;;
11827;SDS011;5971;49.646;8.568;2023-04-25T08:33:47;8.27;;;2.28;;
11827;SDS011;5971;49.646;8.568;2023-04-25T08:36:48;4.28;;;2.42;;
11827;SDS011;5971;49.646;8.568;2023-04-25T08:39:49;6.63;;;2.45;;
11827;SDS011;5971;49.646;8.568;2023-04-25T08:42:53;5.38;;;2.40;;
11827;SDS011;5971;49.646;8.568;2023-04-25T08:45:56;3.83;;;1.98;;
11827;SDS011;5971;49.646;8.568;2023-04-25T08:49:00;6.47;;;2.70;;
11827;SDS011;5971;49.646;8.568;2023-04-25T08:52:03;6.28;;;2.70;;
11827;SDS011;5971;49.646;8.568;2023-04-25T08:55:06;7.47;;;3.60;;
11827;SDS011;5971;49.646;8.568;2023-04-25T08:58:10;6.68;;;3.00;;
11827;SDS011;5971;49.646;8.568;2023-04-25T09:01:11;9.80;;;2.40;;
11827;SDS011;5971;49.646;8.568;2023-04-25T09:04:13;5.32;;;2.75;;
11827;SDS011;5971;49.646;8.568;2023-04-25T09:07:14;5.18;;;2.55;;
11827;SDS011;5971;49.646;8.568;2023-04-25T09:10:19;5.93;;;3.00;;
11827;SDS011;5971;49.646;8.568;2023-04-25T09:13:27;9.90;;;2.80;;
11827;SDS011;5971;49.646;8.568;2023-04-25T09:16:29;5.75;;;2.63;;
11827;SDS011;5971;49.646;8.568;2023-04-25T09:19:37;4.97;;;2.53;;
11827;SDS011;5971;49.646;8.568;2023-04-25T09:22:42;5.50;;;2.65;;
11827;SDS011;5971;49.646;8.568;2023-04-25T09:28:48;4.18;;;2.60;;
11827;SDS011;5971;49.646;8.568;2023-04-25T09:31:49;6.50;;;2.72;;
11827;SDS011;5971;49.646;8.568;2023-04-25T09:34:51;6.95;;;2.30;;
11827;SDS011;5971;49.646;8.568;2023-04-25T09:37:53;6.13;;;2.17;;
11827;SDS011;5971;49.646;8.568;2023-04-25T09:40:54;4.22;;;2.70;;
11827;SDS011;5971;49.646;8.568;2023-04-25T09:43:57;3.88;;;2.13;;
11827;SDS011;5971;49.646;8.568;2023-04-25T09:47:00;4.88;;;2.10;;
11827;SDS011;5971;49.646;8.568;2023-04-25T09:50:01;5.45;;;2.15;;
11827;SDS011;5971;49.646;8.568;2023-04-25T09:53:03;7.70;;;2.58;;
11827;SDS011;5971;49.646;8.568;2023-04-25T09:56:07;4.65;;;2.08;;
11827;SDS011;5971;49.646;8.568;2023-04-25T09:59:09;4.40;;;2.45;;
11827;SDS011;5971;49.646;8.568;2023-04-25T10:02:11;7.55;;;2.33;;
11827;SDS011;5971;49.646;8.568;2023-04-25T10:05:13;4.10;;;1.63;;
11827;SDS011;5971;49.646;8.568;2023-04-25T10:08:15;4.47;;;2.35;;
11827;SDS011;5971;49.646;8.568;2023-04-25T10:11:17;4.85;;;2.08;;
11827;SDS011;5971;49.646;8.568;2023-04-25T10:14:19;4.20;;;1.98;;
11827;SDS011;5971;49.646;8.568;2023-04-25T10:17:20;3.85;;;1.88;;
11827;SDS011;5971;49.646;8.568;2023-04-25T10:20:22;4.45;;;1.90;;
11827;SDS011;5971;49.646;8.568;2023-04-25T10:23:23;3.53;;;1.75;;
11827;SDS011;5971;49.646;8.568;2023-04-25T10:26:25;3.28;;;1.50;;
11827;SDS011;5971;49.646;8.568;2023-04-25T10:29:28;4.00;;;2.03;;
11827;SDS011;5971;49.646;8.568;2023-04-25T10:32:30;3.95;;;1.70;;
11827;SDS011;5971;49.646;8.568;2023-04-25T10:35:32;3.28;;;1.58;;
11827;SDS011;5971;49.646;8.568;2023-04-25T10:38:35;2.55;;;1.55;;
11827;SDS011;5971;49.646;8.568;2023-04-25T10:41:47;2.85;;;1.70;;
11827;SDS011;5971;49.646;8.568;2023-04-25T10:45:03;4.03;;;1.67;;
11827;SDS011;5971;49.646;8.568;2023-04-25T10:48:08;3.42;;;1.65;;
11827;SDS011;5971;49.646;8.568;2023-04-25T10:51:29;4.95;;;1.63;;
11827;SDS011;5971;49.646;8.568;2023-04-25T10:54:52;3.35;;;1.83;;
11827;SDS011;5971;49.646;8.568;2023-04-25T10:57:53;2.72;;;1.30;;
11827;SDS011;5971;49.646;8.568;2023-04-25T11:00:55;4.10;;;1.35;;
11827;SDS011;5971;49.646;8.568;2023-04-25T11:03:58;3.88;;;1.77;;
11827;SDS011;5971;49.646;8.568;2023-04-25T11:10:07;5.03;;;1.73;;
11827;SDS011;5971;49.646;8.568;2023-04-25T11:13:09;2.80;;;1.20;;
11827;SDS011;5971;49.646;8.568;2023-04-25T11:16:10;5.00;;;2.85;;
11827;SDS011;5971;49.646;8.568;2023-04-25T11:19:13;2.65;;;1.52;;
11827;SDS011;5971;49.646;8.568;2023-04-25T11:22:14;3.17;;;1.55;;
11827;SDS011;5971;49.646;8.568;2023-04-25T11:25:16;3.80;;;1.70;;
11827;SDS011;5971;49.646;8.568;2023-04-25T11:28:21;3.63;;;2.00;;
11827;SDS011;5971;49.646;8.568;2023-04-25T11:31:24;4.78;;;1.70;;
11827;SDS011;5971;49.646;8.568;2023-04-25T11:34:30;6.13;;;2.75;;
11827;SDS011;5971;49.646;8.568;2023-04-25T11:37:32;2.85;;;1.38;;
11827;SDS011;5971;49.646;8.568;2023-04-25T11:40:33;4.50;;;2.13;;
11827;SDS011;5971;49.646;8.568;2023-04-25T11:43:34;3.10;;;2.13;;
11827;SDS011;5971;49.646;8.568;2023-04-25T11:46:36;3.75;;;2.05;;
11827;SDS011;5971;49.646;8.568;2023-04-25T11:49:37;8.32;;;4.28;;
11827;SDS011;5971;49.646;8.568;2023-04-25T11:55:40;3.97;;;2.10;;
11827;SDS011;5971;49.646;8.568;2023-04-25T11:58:53;7.70;;;4.60;;
11827;SDS011;5971;49.646;8.568;2023-04-25T12:01:55;7.43;;;4.03;;
11827;SDS011;5971;49.646;8.568;2023-04-25T12:04:59;4.30;;;2.15;;
11827;SDS011;5971;49.646;8.568;2023-04-25T12:08:20;4.60;;;2.00;;
11827;SDS011;5971;49.646;8.568;2023-04-25T12:11:21;3.72;;;1.80;;
11827;SDS011;5971;49.646;8.568;2023-04-25T12:14:24;4.13;;;2.40;;
11827;SDS011;5971;49.646;8.568;2023-04-25T12:17:25;4.47;;;2.25;;
11827;SDS011;5971;49.646;8.568;2023-04-25T12:20:27;3.97;;;2.00;;
11827;SDS011;5971;49.646;8.568;2023-04-25T12:23:29;5.25;;;2.65;;
11827;SDS011;5971;49.646;8.568;2023-04-25T12:26:45;4.40;;;2.33;;
11827;SDS011;5971;49.646;8.568;2023-04-25T12:29:50;3.72;;;2.17;;
11827;SDS011;5971;49.646;8.568;2023-04-25T12:32:52;3.13;;;1.92;;
11827;SDS011;5971;49.646;8.568;2023-04-25T12:35:54;3.55;;;2.50;;
11827;SDS011;5971;49.646;8.568;2023-04-25T12:38:55;3.95;;;2.38;;
11827;SDS011;5971;49.646;8.568;2023-04-25T12:41:56;5.13;;;2.35;;
11827;SDS011;5971;49.646;8.568;2023-04-25T12:44:58;5.25;;;3.00;;
11827;SDS011;5971;49.646;8.568;2023-04-25T12:47:59;5.38;;;2.58;;
11827;SDS011;5971;49.646;8.568;2023-04-25T12:51:04;5.22;;;3.03;;
11827;SDS011;5971;49.646;8.568;2023-04-25T12:54:05;4.22;;;2.90;;
11827;SDS011;5971;49.646;8.568;2023-04-25T12:57:08;3.72;;;2.17;;
11827;SDS011;5971;49.646;8.568;2023-04-25T13:00:09;5.53;;;2.42;;
11827;SDS011;5971;49.646;8.568;2023-04-25T13:03:12;4.28;;;2.38;;
11827;SDS011;5971;49.646;8.568;2023-04-25T13:06:14;6.40;;;2.55;;
11827;SDS011;5971;49.646;8.568;2023-04-25T13:09:16;3.95;;;2.30;;
11827;SDS011;5971;49.646;8.568;2023-04-25T13:12:17;4.32;;;2.17;;
11827;SDS011;5971;49.646;8.568;2023-04-25T13:15:19;4.43;;;2.38;;
11827;SDS011;5971;49.646;8.568;2023-04-25T13:18:20;4.47;;;3.15;;
11827;SDS011;5971;49.646;8.568;2023-04-25T13:21:22;4.40;;;2.05;;
11827;SDS011;5971;49.646;8.568;2023-04-25T13:24:23;4.90;;;2.05;;
11827;SDS011;5971;49.646;8.568;2023-04-25T13:27:24;3.97;;;2.78;;
11827;SDS011;5971;49.646;8.568;2023-04-25T13:30:26;4.68;;;2.40;;
11827;SDS011;5971;49.646;8.568;2023-04-25T13:33:27;6.45;;;3.17;;
11827;SDS011;5971;49.646;8.568;2023-04-25T13:36:29;8.48;;;2.80;;
11827;SDS011;5971;49.646;8.568;2023-04-25T13:39:30;5.15;;;2.92;;
11827;SDS011;5971;49.646;8.568;2023-04-25T13:42:32;5.38;;;2.67;;
11827;SDS011;5971;49.646;8.568;2023-04-25T13:45:33;6.10;;;2.63;;
11827;SDS011;5971;49.646;8.568;2023-04-25T13:48:34;4.82;;;3.30;;
11827;SDS011;5971;49.646;8.568;2023-04-25T13:51:36;6.32;;;2.78;;
11827;SDS011;5971;49.646;8.568;2023-04-25T13:54:37;5.18;;;2.53;;
11827;SDS011;5971;49.646;8.568;2023-04-25T13:57:38;4.43;;;2.30;;
11827;SDS011;5971;49.646;8.568;2023-04-25T14:00:41;4.05;;;2.30;;
11827;SDS011;5971;49.646;8.568;2023-04-25T14:03:44;5.28;;;2.50;;
11827;SDS011;5971;49.646;8.568;2023-04-25T14:06:46;5.65;;;2.85;;
11827;SDS011;5971;49.646;8.568;2023-04-25T14:09:48;5.78;;;2.25;;
11827;SDS011;5971;49.646;8.568;2023-04-25T14:12:49;5.65;;;2.53;;
11827;SDS011;5971;49.646;8.568;2023-04-25T14:15:51;4.65;;;2.50;;
11827;SDS011;5971;49.646;8.568;2023-04-25T14:18:52;5.82;;;2.30;;
11827;SDS011;5971;49.646;8.568;2023-04-25T14:21:55;6.78;;;2.50;;
11827;SDS011;5971;49.646;8.568;2023-04-25T14:24:56;6.85;;;2.60;;
11827;SDS011;5971;49.646;8.568;2023-04-25T14:27:59;4.22;;;2.05;;
11827;SDS011;5971;49.646;8.568;2023-04-25T14:31:00;5.60;;;2.20;;
11827;SDS011;5971;49.646;8.568;2023-04-25T14:34:02;4.63;;;2.25;;
11827;SDS011;5971;49.646;8.568;2023-04-25T14:37:03;5.25;;;2.45;;
11827;SDS011;5971;49.646;8.568;2023-04-25T14:40:05;8.75;;;2.50;;
11827;SDS011;5971;49.646;8.568;2023-04-25T14:43:06;5.18;;;1.90;;
11827;SDS011;5971;49.646;8.568;2023-04-25T14:46:08;5.30;;;2.30;;
11827;SDS011;5971;49.646;8.568;2023-04-25T14:49:09;7.05;;;2.65;;
11827;SDS011;5971;49.646;8.568;2023-04-25T14:52:10;4.28;;;2.08;;
11827;SDS011;5971;49.646;8.568;2023-04-25T14:55:12;6.03;;;2.50;;
11827;SDS011;5971;49.646;8.568;2023-04-25T14:58:13;5.53;;;2.22;;
11827;SDS011;5971;49.646;8.568;2023-04-25T15:01:14;4.90;;;2.33;;
11827;SDS011;5971;49.646;8.568;2023-04-25T15:04:16;5.70;;;2.50;;
11827;SDS011;5971;49.646;8.568;2023-04-25T15:07:18;4.53;;;2.33;;
11827;SDS011;5971;49.646;8.568;2023-04-25T15:10:20;4.20;;;2.35;;
11827;SDS011;5971;49.646;8.568;2023-04-25T15:13:21;3.30;;;2.03;;
11827;SDS011;5971;49.646;8.568;2023-04-25T15:16:23;7.15;;;3.38;;
11827;SDS011;5971;49.646;8.568;2023-04-25T15:19:24;4.28;;;2.35;;
11827;SDS011;5971;49.646;8.568;2023-04-25T15:22:25;3.58;;;2.20;;
11827;SDS011;5971;49.646;8.568;2023-04-25T15:25:27;5.47;;;2.33;;
11827;SDS011;5971;49.646;8.568;2023-04-25T15:28:29;3.35;;;1.90;;
11827;SDS011;5971;49.646;8.568;2023-04-25T15:31:32;5.03;;;1.98;;
11827;SDS011;5971;49.646;8.568;2023-04-25T15:34:33;4.15;;;2.20;;
11827;SDS011;5971;49.646;8.568;2023-04-25T15:37:36;4.65;;;2.20;;
11827;SDS011;5971;49.646;8.568;2023-04-25T15:40:38;3.08;;;1.77;;
11827;SDS011;5971;49.646;8.568;2023-04-25T15:43:39;3.85;;;2.03;;
11827;SDS011;5971;49.646;8.568;2023-04-25T15:46:40;4.07;;;2.30;;
11827;SDS011;5971;49.646;8.568;2023-04-25T15:49:42;4.13;;;2.10;;
11827;SDS011;5971;49.646;8.568;2023-04-25T15:52:43;3.13;;;1.85;;
11827;SDS011;5971;49.646;8.568;2023-04-25T15:55:44;5.03;;;2.95;;
11827;SDS011;5971;49.646;8.568;2023-04-25T15:58:46;4.97;;;2.38;;
11827;SDS011;5971;49.646;8.568;2023-04-25T16:01:48;5.20;;;2.05;;
11827;SDS011;5971;49.646;8.568;2023-04-25T16:04:49;3.25;;;1.77;;
11827;SDS011;5971;49.646;8.568;2023-04-25T16:07:51;2.92;;;1.52;;
11827;SDS011;5971;49.646;8.568;2023-04-25T16:10:54;5.30;;;2.25;;
11827;SDS011;5971;49.646;8.568;2023-04-25T16:13:56;2.95;;;1.77;;
11827;SDS011;5971;49.646;8.568;2023-04-25T16:16:57;2.97;;;1.85;;
11827;SDS011;5971;49.646;8.568;2023-04-25T16:20:00;4.60;;;2.30;;
11827;SDS011;5971;49.646;8.568;2023-04-25T16:23:10;5.03;;;1.55;;
11827;SDS011;5971;49.646;8.568;2023-04-25T16:26:11;3.88;;;2.10;;
11827;SDS011;5971;49.646;8.568;2023-04-25T16:29:13;3.72;;;1.83;;
11827;SDS011;5971;49.646;8.568;2023-04-25T16:32:18;7.07;;;2.10;;
11827;SDS011;5971;49.646;8.568;2023-04-25T16:35:19;4.47;;;1.90;;
11827;SDS011;5971;49.646;8.568;2023-04-25T16:38:21;4.30;;;1.95;;
11827;SDS011;5971;49.646;8.568;2023-04-25T16:41:22;3.83;;;1.63;;
11827;SDS011;5971;49.646;8.568;2023-04-25T16:44:25;4.38;;;1.90;;
11827;SDS011;5971;49.646;8.568;2023-04-25T16:47:26;4.32;;;1.60;;
11827;SDS011;5971;49.646;8.568;2023-04-25T16:50:27;4.03;;;2.05;;
11827;SDS011;5971;49.646;8.568;2023-04-25T16:53:29;4.13;;;2.03;;
11827;SDS011;5971;49.646;8.568;2023-04-25T16:56:30;6.60;;;2.35;;
11827;SDS011;5971;49.646;8.568;2023-04-25T16:59:31;3.78;;;1.95;;
11827;SDS011;5971;49.646;8.568;2023-04-25T17:02:33;6.18;;;1.77;;
11827;SDS011;5971;49.646;8.568;2023-04-25T17:05:34;3.53;;;1.55;;
11827;SDS011;5971;49.646;8.568;2023-04-25T17:08:36;4.32;;;1.95;;
11827;SDS011;5971;49.646;8.568;2023-04-25T17:11:37;5.88;;;2.00;;
11827;SDS011;5971;49.646;8.568;2023-04-25T17:14:39;4.93;;;2.35;;
11827;SDS011;5971;49.646;8.568;2023-04-25T17:17:40;2.85;;;1.75;;
11827;SDS011;5971;49.646;8.568;2023-04-25T17:20:42;3.88;;;2.55;;
11827;SDS011;5971;49.646;8.568;2023-04-25T17:23:43;5.38;;;2.10;;
11827;SDS011;5971;49.646;8.568;2023-04-25T17:26:45;4.82;;;2.42;;
11827;SDS011;5971;49.646;8.568;2023-04-25T17:29:49;6.03;;;2.35;;
11827;SDS011;5971;49.646;8.568;2023-04-25T17:32:51;4.13;;;1.90;;
11827;SDS011;5971;49.646;8.568;2023-04-25T17:35:53;4.13;;;1.73;;
11827;SDS011;5971;49.646;8.568;2023-04-25T17:38:54;3.47;;;2.10;;
11827;SDS011;5971;49.646;8.568;2023-04-25T17:41:55;5.05;;;2.08;;
11827;SDS011;5971;49.646;8.568;2023-04-25T17:48:01;4.90;;;2.40;;
11827;SDS011;5971;49.646;8.568;2023-04-25T17:51:04;5.50;;;2.90;;
11827;SDS011;5971;49.646;8.568;2023-04-25T17:54:06;4.88;;;2.20;;
11827;SDS011;5971;49.646;8.568;2023-04-25T17:57:08;4.68;;;2.30;;
11827;SDS011;5971;49.646;8.568;2023-04-25T18:00:09;5.40;;;1.73;;
11827;SDS011;5971;49.646;8.568;2023-04-25T18:03:13;3.78;;;1.90;;
11827;SDS011;5971;49.646;8.568;2023-04-25T18:06:15;9.02;;;2.17;;
11827;SDS011;5971;49.646;8.568;2023-04-25T18:09:16;8.18;;;2.72;;
11827;SDS011;5971;49.646;8.568;2023-04-25T18:12:18;6.38;;;3.95;;
11827;SDS011;5971;49.646;8.568;2023-04-25T18:15:20;7.40;;;3.63;;
11827;SDS011;5971;49.646;8.568;2023-04-25T18:18:22;5.57;;;2.95;;
11827;SDS011;5971;49.646;8.568;2023-04-25T18:21:25;5.85;;;2.83;;
11827;SDS011;5971;49.646;8.568;2023-04-25T18:24:27;7.78;;;2.22;;
11827;SDS011;5971;49.646;8.568;2023-04-25T18:27:28;5.30;;;2.08;;
11827;SDS011;5971;49.646;8.568;2023-04-25T18:30:30;5.70;;;2.28;;
11827;SDS011;5971;49.646;8.568;2023-04-25T18:33:31;5.07;;;2.55;;
11827;SDS011;5971;49.646;8.568;2023-04-25T18:36:33;4.47;;;1.95;;
11827;SDS011;5971;49.646;8.568;2023-04-25T18:39:34;4.18;;;1.73;;
11827;SDS011;5971;49.646;8.568;2023-04-25T18:42:35;6.80;;;2.30;;
11827;SDS011;5971;49.646;8.568;2023-04-25T18:45:38;3.78;;;1.60;;